createdAt,value
2018-11-13T00:01:23.599Z,15.77
2018-11-13T00:03:57.907Z,16.77
2018-11-13T00:06:32.275Z,17.00
2018-11-13T00:09:07.963Z,17.87
2018-11-13T00:11:42.119Z,17.00
2018-11-13T00:14:16.502Z,16.63
2018-11-13T00:16:50.767Z,17.23
2018-11-13T00:19:25.122Z,16.37
2018-11-13T00:21:59.282Z,17.40
2018-11-13T00:24:33.608Z,16.67
2018-11-13T00:27:07.930Z,16.17
2018-11-13T00:29:42.154Z,15.97
2018-11-13T00:32:16.430Z,16.23
2018-11-13T00:34:50.781Z,16.17
2018-11-13T00:37:25.213Z,15.87
2018-11-13T00:39:59.486Z,17.00
2018-11-13T00:42:33.833Z,17.23
2018-11-13T00:45:08.374Z,16.83
2018-11-13T00:47:42.706Z,16.53
2018-11-13T00:50:18.241Z,17.37
2018-11-13T00:52:52.547Z,16.60
2018-11-13T00:55:26.886Z,16.40
2018-11-13T00:58:01.102Z,17.73
2018-11-13T01:00:35.292Z,15.67
2018-11-13T01:03:09.494Z,18.43
2018-11-13T01:05:43.852Z,17.40
2018-11-13T01:08:18.090Z,17.23
2018-11-13T01:10:52.365Z,16.60
2018-11-13T01:13:26.526Z,17.53
2018-11-13T01:16:00.815Z,16.97
2018-11-13T01:18:35.098Z,16.93
2018-11-13T01:21:09.418Z,17.83
2018-11-13T01:23:43.592Z,18.50
2018-11-13T01:26:17.913Z,17.83
2018-11-13T01:28:52.163Z,18.27
2018-11-13T01:31:26.454Z,17.80
2018-11-13T01:34:00.722Z,17.93
2018-11-13T01:36:35.010Z,17.47
2018-11-13T01:39:10.370Z,18.47
2018-11-13T01:41:44.754Z,17.37
2018-11-13T01:44:19.186Z,17.43
2018-11-13T01:46:53.513Z,16.93
2018-11-13T01:49:27.848Z,16.50
2018-11-13T01:52:02.151Z,17.33
2018-11-13T01:54:36.794Z,17.17
2018-11-13T01:57:11.164Z,17.83
2018-11-13T01:59:45.430Z,16.70
2018-11-13T02:02:19.602Z,17.30
2018-11-13T02:04:53.921Z,17.67
2018-11-13T02:07:28.050Z,17.10
2018-11-13T02:10:02.333Z,17.67
2018-11-13T02:12:36.518Z,16.67
2018-11-13T02:15:10.813Z,16.57
2018-11-13T02:17:45.051Z,17.63
2018-11-13T02:20:20.593Z,17.27
2018-11-13T02:22:54.770Z,17.47
2018-11-13T02:25:29.135Z,16.03
2018-11-13T02:28:03.433Z,15.93
2018-11-13T02:30:37.750Z,18.13
2018-11-13T02:33:12.046Z,17.77
2018-11-13T02:35:46.442Z,18.07
2018-11-13T02:38:20.731Z,17.87
2018-11-13T02:40:55.050Z,16.50
2018-11-13T02:43:29.315Z,17.70
2018-11-13T02:46:03.724Z,18.10
2018-11-13T02:48:38.010Z,17.40
2018-11-13T02:51:12.326Z,17.73
2018-11-13T02:53:46.666Z,19.33
2018-11-13T02:56:21.086Z,19.30
2018-11-13T02:58:55.338Z,19.10
2018-11-13T03:01:29.639Z,20.67
2018-11-13T03:04:03.946Z,21.77
2018-11-13T03:06:38.253Z,20.57
2018-11-13T03:09:12.528Z,20.33
2018-11-13T03:11:46.989Z,19.30
2018-11-13T03:14:21.210Z,21.80
2018-11-13T03:16:55.491Z,20.70
2018-11-13T03:19:29.873Z,20.70
2018-11-13T03:22:04.381Z,22.17
2018-11-13T03:24:38.798Z,23.13
2018-11-13T03:27:13.033Z,24.27
2018-11-13T03:29:47.459Z,25.37
2018-11-13T03:32:21.894Z,25.80
2018-11-13T03:34:56.273Z,23.13
2018-11-13T03:37:30.474Z,25.00
2018-11-13T03:40:05.806Z,25.60
2018-11-13T03:42:40.305Z,24.97
2018-11-13T03:45:14.820Z,24.90
2018-11-13T03:47:49.044Z,25.23
2018-11-13T03:50:23.346Z,25.60
2018-11-13T03:52:57.538Z,25.03
2018-11-13T03:55:31.821Z,26.00
2018-11-13T03:58:06.510Z,26.17
2018-11-13T04:00:40.698Z,25.10
2018-11-13T04:03:15.210Z,25.30
2018-11-13T04:05:49.539Z,24.53
2018-11-13T04:08:23.837Z,24.23
2018-11-13T04:10:58.276Z,25.47
2018-11-13T04:13:32.622Z,25.73
2018-11-13T04:16:06.902Z,28.67
2018-11-13T04:18:41.205Z,29.90
2018-11-13T04:21:15.626Z,29.90
2018-11-13T04:23:50.075Z,29.57
2018-11-13T04:26:24.622Z,30.57
2018-11-13T04:28:58.839Z,30.77
2018-11-13T04:31:33.150Z,29.17
2018-11-13T04:34:07.422Z,29.60
2018-11-13T04:36:41.831Z,27.97
2018-11-13T04:39:16.030Z,27.57
2018-11-13T04:41:50.235Z,27.17
2018-11-13T04:44:24.666Z,26.70
2018-11-13T04:46:58.970Z,28.83
2018-11-13T04:49:33.395Z,25.17
2018-11-13T04:52:07.906Z,25.03
2018-11-13T04:54:42.193Z,24.60
2018-11-13T04:57:16.573Z,22.97
2018-11-13T04:59:50.950Z,23.33
2018-11-13T05:02:25.331Z,22.80
2018-11-13T05:04:59.634Z,22.40
2018-11-13T05:07:33.934Z,26.85
2018-11-13T05:10:10.434Z,23.33
2018-11-13T05:12:45.332Z,22.07
2018-11-13T05:15:19.718Z,23.30
2018-11-13T05:17:54.049Z,21.83
2018-11-13T05:20:28.335Z,23.20
2018-11-13T05:23:02.701Z,22.73
2018-11-13T05:25:37.031Z,22.17
2018-11-13T05:28:11.193Z,23.57
2018-11-13T05:30:45.364Z,21.80
2018-11-13T05:33:19.731Z,23.47
2018-11-13T05:35:54.074Z,23.47
2018-11-13T05:38:28.501Z,20.10
2018-11-13T05:41:02.874Z,20.67
2018-11-13T05:43:37.057Z,20.87
2018-11-13T05:46:11.462Z,19.13
2018-11-13T05:48:45.781Z,19.20
2018-11-13T05:51:20.090Z,18.80
2018-11-13T05:53:54.462Z,18.80
2018-11-13T05:56:28.754Z,19.57
2018-11-13T05:59:03.094Z,17.53
2018-11-13T06:01:37.446Z,18.27
2018-11-13T06:04:11.722Z,18.67
2018-11-13T06:06:46.018Z,20.20
2018-11-13T06:09:20.294Z,19.30
2018-11-13T06:11:54.726Z,17.60
2018-11-13T06:14:29.061Z,17.23
2018-11-13T06:17:03.261Z,19.00
2018-11-13T06:19:37.653Z,17.53
2018-11-13T06:22:11.986Z,18.40
2018-11-13T06:24:46.226Z,19.07
2018-11-13T06:27:20.839Z,17.27
2018-11-13T06:29:55.161Z,19.17
2018-11-13T06:32:29.634Z,18.47
2018-11-13T06:35:04.167Z,19.23
2018-11-13T06:37:38.830Z,17.70
2018-11-13T06:40:13.174Z,19.07
2018-11-13T06:42:47.402Z,18.33
2018-11-13T06:45:22.617Z,19.63
2018-11-13T06:47:56.930Z,19.67
2018-11-13T06:50:31.306Z,19.97
2018-11-13T06:53:05.648Z,16.87
2018-11-13T06:55:42.343Z,19.23
2018-11-13T06:58:16.514Z,19.77
2018-11-13T07:00:50.918Z,23.07
2018-11-13T07:03:25.229Z,18.60
2018-11-13T07:05:59.558Z,19.43
2018-11-13T07:08:33.735Z,17.93
2018-11-13T07:11:08.154Z,17.87
2018-11-13T07:13:42.499Z,17.83
2018-11-13T07:16:16.748Z,17.57
2018-11-13T07:18:50.999Z,18.10
2018-11-13T07:21:25.305Z,16.63
2018-11-13T07:23:59.734Z,16.10
2018-11-13T07:26:34.070Z,17.30
2018-11-13T07:29:08.489Z,16.30
2018-11-13T07:31:42.709Z,17.03
2018-11-13T07:34:17.060Z,16.33
2018-11-13T07:36:52.258Z,15.07
2018-11-13T07:39:26.765Z,16.53
2018-11-13T07:42:00.954Z,17.87
2018-11-13T07:44:35.363Z,17.47
2018-11-13T07:47:09.769Z,15.13
2018-11-13T07:49:43.900Z,15.60
2018-11-13T07:52:18.122Z,15.90
2018-11-13T07:54:52.526Z,13.80
2018-11-13T07:57:26.846Z,13.00
2018-11-13T08:00:01.258Z,12.53
2018-11-13T08:02:35.630Z,11.50
2018-11-13T08:05:10.042Z,11.80
2018-11-13T08:07:44.274Z,11.00
2018-11-13T08:10:18.582Z,10.17
2018-11-13T08:12:53.075Z,10.10
2018-11-13T08:15:27.387Z,11.43
2018-11-13T08:18:01.638Z,9.97
2018-11-13T08:20:35.962Z,10.00
2018-11-13T08:23:10.382Z,9.73
2018-11-13T08:25:44.578Z,8.70
2018-11-13T08:28:18.849Z,9.43
2018-11-13T08:30:52.973Z,9.13
2018-11-13T08:33:27.243Z,8.67
2018-11-13T08:36:01.493Z,9.03
2018-11-13T08:38:35.642Z,8.23
2018-11-13T08:41:09.942Z,7.70
2018-11-13T08:43:44.402Z,7.40
2018-11-13T08:46:18.525Z,7.20
2018-11-13T08:48:52.806Z,7.17
2018-11-13T08:51:27.039Z,6.77
2018-11-13T08:54:01.439Z,7.00
2018-11-13T08:56:35.690Z,6.53
2018-11-13T08:59:10.013Z,6.00
2018-11-13T09:01:44.218Z,6.80
2018-11-13T09:04:18.514Z,6.50
2018-11-13T09:06:52.802Z,6.80
2018-11-13T09:09:27.118Z,6.73
2018-11-13T09:12:01.529Z,5.97
2018-11-13T09:14:36.063Z,7.07
2018-11-13T09:17:10.738Z,6.47
2018-11-13T09:19:45.126Z,6.27
2018-11-13T09:22:19.244Z,6.07
2018-11-13T09:24:53.578Z,5.63
2018-11-13T09:27:27.862Z,6.03
2018-11-13T09:30:02.577Z,6.07
2018-11-13T09:32:36.954Z,5.40
2018-11-13T09:35:12.549Z,4.60
2018-11-13T09:37:46.873Z,4.83
2018-11-13T09:40:21.350Z,4.67
2018-11-13T09:42:55.506Z,4.70
2018-11-13T09:45:29.940Z,4.50
2018-11-13T09:48:04.439Z,4.00
2018-11-13T09:50:38.691Z,5.23
2018-11-13T09:53:12.967Z,4.10
2018-11-13T09:55:47.234Z,4.70
2018-11-13T09:58:21.418Z,3.87
2018-11-13T10:00:55.949Z,4.37
2018-11-13T10:03:30.886Z,4.40
2018-11-13T10:06:04.682Z,4.20
2018-11-13T10:08:38.843Z,4.93
2018-11-13T10:11:13.165Z,4.40
2018-11-13T10:13:47.426Z,5.27
2018-11-13T10:16:21.818Z,5.70
2018-11-13T10:18:55.958Z,4.93
2018-11-13T10:21:30.175Z,5.30
2018-11-13T10:24:05.014Z,5.80
2018-11-13T10:26:39.348Z,5.27
2018-11-13T10:29:13.650Z,5.00
2018-11-13T10:31:48.034Z,5.40
2018-11-13T10:34:22.278Z,5.10
2018-11-13T10:36:56.551Z,6.03
2018-11-13T10:39:30.742Z,6.17
2018-11-13T10:42:05.442Z,5.13
2018-11-13T10:44:39.698Z,6.33
2018-11-13T10:47:13.883Z,5.47
2018-11-13T10:49:48.050Z,5.10
2018-11-13T10:52:22.427Z,4.90
2018-11-13T10:54:56.830Z,5.30
2018-11-13T10:57:31.142Z,6.80
2018-11-13T11:00:12.335Z,4.83
2018-11-13T11:02:52.588Z,5.00
2018-11-13T11:05:27.966Z,4.83
2018-11-13T11:08:02.333Z,4.70
2018-11-13T11:10:36.605Z,5.00
2018-11-13T11:13:11.042Z,4.00
2018-11-13T11:15:45.133Z,4.47
2018-11-13T11:18:19.367Z,4.03
2018-11-13T11:20:53.558Z,3.50
2018-11-13T11:23:27.821Z,2.70
2018-11-13T11:26:02.046Z,2.83
2018-11-13T11:28:36.310Z,3.03
2018-11-13T11:31:10.702Z,3.00
2018-11-13T11:33:44.922Z,3.60
2018-11-13T11:36:19.326Z,3.03
2018-11-13T11:38:53.801Z,3.00
2018-11-13T11:41:27.886Z,3.07
2018-11-13T11:44:02.133Z,3.20
2018-11-13T11:46:36.542Z,3.13
2018-11-13T11:49:10.870Z,3.10
2018-11-13T11:51:45.150Z,2.73
2018-11-13T11:54:19.428Z,3.20
2018-11-13T11:56:53.698Z,3.17
2018-11-13T11:59:28.127Z,2.60
2018-11-13T12:02:02.459Z,3.00
2018-11-13T12:04:36.637Z,3.63
2018-11-13T12:07:10.962Z,3.27
2018-11-13T12:09:45.249Z,2.73
2018-11-13T12:12:19.668Z,2.97
2018-11-13T12:14:53.767Z,2.53
2018-11-13T12:17:28.153Z,3.60
2018-11-13T12:20:02.482Z,2.97
2018-11-13T12:22:36.778Z,3.37
2018-11-13T12:25:14.514Z,3.10
2018-11-13T12:27:48.799Z,3.17
2018-11-13T12:30:24.066Z,3.40
2018-11-13T12:32:58.316Z,3.10
2018-11-13T12:35:32.670Z,3.03
2018-11-13T12:38:06.961Z,2.47
2018-11-13T12:40:41.625Z,2.90
2018-11-13T12:43:15.514Z,2.70
2018-11-13T12:45:49.682Z,2.43
2018-11-13T12:48:24.021Z,3.00
2018-11-13T12:51:02.899Z,2.50
2018-11-13T12:53:37.195Z,1.83
2018-11-13T12:56:11.573Z,1.83
2018-11-13T12:58:45.773Z,1.80
2018-11-13T13:01:20.130Z,2.00
2018-11-13T13:03:54.523Z,1.83
2018-11-13T13:06:28.818Z,1.60
2018-11-13T13:09:03.354Z,1.67
2018-11-13T13:11:37.654Z,1.87
2018-11-13T13:14:14.317Z,1.90
2018-11-13T13:16:48.660Z,1.97
2018-11-13T13:19:22.916Z,1.37
2018-11-13T13:21:57.356Z,2.13
2018-11-13T13:24:31.662Z,1.30
2018-11-13T13:27:05.974Z,1.20
2018-11-13T13:29:41.054Z,1.60
2018-11-13T13:32:15.350Z,1.70
2018-11-13T13:34:49.749Z,1.20
2018-11-13T13:37:24.155Z,1.50
2018-11-13T13:39:58.461Z,1.20
2018-11-13T13:42:32.852Z,1.00
2018-11-13T13:45:07.182Z,1.50
2018-11-13T13:47:41.498Z,1.10
2018-11-13T13:50:15.777Z,1.30
2018-11-13T13:52:50.017Z,1.30
2018-11-13T13:55:26.067Z,2.07
2018-11-13T13:58:00.370Z,1.57
2018-11-13T14:00:34.737Z,1.40
2018-11-13T14:03:09.865Z,1.40
2018-11-13T14:05:44.686Z,1.37
2018-11-13T14:08:19.202Z,1.20
2018-11-13T14:10:53.490Z,1.27
2018-11-13T14:13:27.808Z,1.20
2018-11-13T14:16:02.195Z,1.30
2018-11-13T14:18:36.402Z,1.33
2018-11-13T14:21:10.766Z,1.17
2018-11-13T14:23:45.199Z,1.50
2018-11-13T14:26:19.434Z,1.40
2018-11-13T14:28:53.941Z,1.20
2018-11-13T14:31:28.179Z,2.67
2018-11-13T14:34:02.631Z,2.10
2018-11-13T14:36:37.042Z,1.97
2018-11-13T14:39:11.830Z,1.50
2018-11-13T14:41:46.078Z,1.90
2018-11-13T14:44:20.386Z,1.50
2018-11-13T14:46:54.721Z,1.87
2018-11-13T14:49:29.140Z,1.80
2018-11-13T14:52:03.531Z,1.50
2018-11-13T14:54:37.794Z,1.30
2018-11-13T14:57:12.029Z,2.00
2018-11-13T14:59:46.287Z,1.60
2018-11-13T15:02:20.609Z,1.40
2018-11-13T15:04:54.907Z,1.20
2018-11-13T15:07:29.266Z,1.47
2018-11-13T15:10:03.750Z,1.17
2018-11-13T15:12:38.159Z,1.03
2018-11-13T15:15:12.657Z,1.40
2018-11-13T15:17:46.862Z,1.30
2018-11-13T15:20:21.202Z,1.13
2018-11-13T15:22:55.470Z,1.50
2018-11-13T15:25:29.818Z,1.27
2018-11-13T15:28:04.552Z,1.50
2018-11-13T15:30:40.436Z,1.57
2018-11-13T15:33:16.027Z,1.77
2018-11-13T15:35:50.246Z,1.60
2018-11-13T15:38:24.497Z,1.40
2018-11-13T15:40:58.825Z,1.63
2018-11-13T15:43:33.125Z,1.17
2018-11-13T15:46:07.286Z,1.93
2018-11-13T15:48:41.572Z,1.33
2018-11-13T15:51:16.086Z,1.60
2018-11-13T15:53:50.351Z,1.50
2018-11-13T15:56:24.493Z,1.87
2018-11-13T15:58:58.765Z,1.90
2018-11-13T16:01:33.002Z,2.27
2018-11-13T16:04:07.286Z,1.90
2018-11-13T16:06:41.587Z,2.27
2018-11-13T16:09:15.779Z,1.93
2018-11-13T16:11:49.897Z,2.27
2018-11-13T16:14:24.202Z,2.30
2018-11-13T16:16:58.520Z,2.37
2018-11-13T16:19:32.698Z,2.70
2018-11-13T16:22:07.133Z,2.20
2018-11-13T16:24:41.382Z,2.33
2018-11-13T16:27:15.786Z,2.43
2018-11-13T16:29:50.159Z,2.37
2018-11-13T16:32:24.601Z,2.50
2018-11-13T16:34:58.879Z,2.40
2018-11-13T16:37:33.051Z,2.73
2018-11-13T16:40:08.706Z,2.52
2018-11-13T16:42:43.095Z,3.80
2018-11-13T16:45:18.763Z,2.47
2018-11-13T16:47:53.264Z,2.57
2018-11-13T16:50:28.690Z,2.27
2018-11-13T16:53:02.987Z,2.43
2018-11-13T16:55:42.469Z,2.40
2018-11-13T16:58:17.092Z,2.50
2018-11-13T17:00:51.417Z,1.93
2018-11-13T17:03:25.597Z,2.50
2018-11-13T17:10:11.125Z,2.90
2018-11-13T17:12:45.751Z,2.27
2018-11-13T17:15:21.290Z,2.63
2018-11-13T17:17:56.729Z,2.70
2018-11-13T17:20:30.908Z,2.60
2018-11-13T17:23:05.184Z,2.50
2018-11-13T17:25:39.796Z,2.10
2018-11-13T17:28:13.991Z,2.67
2018-11-13T17:30:48.269Z,2.00
2018-11-13T17:33:22.478Z,2.30
2018-11-13T17:35:56.806Z,2.63
2018-11-13T17:38:31.003Z,2.03
2018-11-13T17:41:05.574Z,2.50
2018-11-13T17:43:39.778Z,2.27
2018-11-13T17:46:14.025Z,2.10
2018-11-13T17:48:48.238Z,2.60
2018-11-13T17:51:22.499Z,2.30
2018-11-13T17:53:56.885Z,2.53
2018-11-13T17:56:31.107Z,2.33
2018-11-13T17:59:05.605Z,1.97
2018-11-13T18:01:41.199Z,2.00
2018-11-13T18:04:17.091Z,2.70
2018-11-13T18:06:51.382Z,2.47
2018-11-13T18:09:25.810Z,2.30
2018-11-13T18:12:00.234Z,2.13
2018-11-13T18:14:34.464Z,2.37
2018-11-13T18:17:08.614Z,2.77
2018-11-13T18:19:42.958Z,2.40
2018-11-13T18:22:17.209Z,2.87
2018-11-13T18:24:51.429Z,2.47
2018-11-13T18:27:25.690Z,2.73
2018-11-13T18:29:59.982Z,2.50
2018-11-13T18:32:34.270Z,2.33
2018-11-13T18:35:09.930Z,2.50
2018-11-13T18:37:44.815Z,2.20
2018-11-13T18:40:19.938Z,2.77
2018-11-13T18:43:01.522Z,3.07
2018-11-13T18:45:37.074Z,2.87
2018-11-13T18:48:11.296Z,2.47
2018-11-13T18:50:46.106Z,3.20
2018-11-13T18:53:20.402Z,2.77
2018-11-13T18:55:54.590Z,3.07
2018-11-13T18:58:28.879Z,2.70
2018-11-13T19:01:03.222Z,2.77
2018-11-13T19:03:37.438Z,2.43
2018-11-13T19:06:11.733Z,2.30
2018-11-13T19:08:46.174Z,2.50
2018-11-13T19:11:20.432Z,2.50
2018-11-13T19:13:54.763Z,2.33
2018-11-13T19:16:28.962Z,2.27
2018-11-13T19:19:03.614Z,2.40
2018-11-13T19:21:37.921Z,2.77
2018-11-13T19:24:12.310Z,3.13
2018-11-13T19:26:46.646Z,3.47
2018-11-13T19:29:20.865Z,2.63
2018-11-13T19:31:55.105Z,3.67
2018-11-13T19:34:29.627Z,3.00
2018-11-13T19:37:03.975Z,3.10
2018-11-13T19:39:38.154Z,2.90
2018-11-13T19:42:12.330Z,3.13
2018-11-13T19:44:46.575Z,2.93
2018-11-13T19:47:20.762Z,3.77
2018-11-13T19:49:55.084Z,2.60
2018-11-13T19:52:29.342Z,3.30
2018-11-13T19:55:04.066Z,2.80
2018-11-13T19:57:38.553Z,3.10
2018-11-13T20:00:17.867Z,3.33
2018-11-13T20:02:53.055Z,3.10
2018-11-13T20:05:27.999Z,3.73
2018-11-13T20:08:02.278Z,2.83
2018-11-13T20:10:37.255Z,3.00
2018-11-13T20:13:11.754Z,3.50
2018-11-13T20:15:46.154Z,3.27
2018-11-13T20:18:20.468Z,3.63
2018-11-13T20:20:54.769Z,3.20
2018-11-13T20:23:29.046Z,3.10
2018-11-13T20:26:03.401Z,3.80
2018-11-13T20:28:37.587Z,3.63
2018-11-13T20:31:12.076Z,3.43
2018-11-13T20:33:46.198Z,5.03
2018-11-13T20:36:20.362Z,7.12
2018-11-13T20:38:54.638Z,5.97
2018-11-13T20:41:28.941Z,4.97
2018-11-13T20:44:03.358Z,7.90
2018-11-13T20:46:37.682Z,13.40
2018-11-13T20:49:11.818Z,11.33
2018-11-13T20:51:46.026Z,5.30
2018-11-13T20:54:20.386Z,7.63
2018-11-13T20:56:54.703Z,4.53
2018-11-13T20:59:28.958Z,6.30
2018-11-13T21:02:03.550Z,5.57
2018-11-13T21:04:37.750Z,5.30
2018-11-13T21:07:12.022Z,5.80
2018-11-13T21:09:46.319Z,5.37
2018-11-13T21:12:20.634Z,4.70
2018-11-13T21:14:55.035Z,5.10
2018-11-13T21:17:29.431Z,4.97
2018-11-13T21:20:03.881Z,4.90
2018-11-13T21:22:38.240Z,5.27
2018-11-13T21:25:13.903Z,4.67
2018-11-13T21:27:48.306Z,5.00
2018-11-13T21:30:22.933Z,4.93
2018-11-13T21:32:57.198Z,5.13
2018-11-13T21:35:31.643Z,5.70
2018-11-13T21:38:06.177Z,5.80
2018-11-13T21:40:40.502Z,5.63
2018-11-13T21:43:14.851Z,5.50
2018-11-13T21:45:49.113Z,5.77
2018-11-13T21:48:23.476Z,5.97
2018-11-13T21:50:57.754Z,5.63
2018-11-13T21:53:32.074Z,5.27
2018-11-13T21:56:06.370Z,6.57
2018-11-13T21:58:40.594Z,6.07
2018-11-13T22:01:14.954Z,7.00
2018-11-13T22:03:49.273Z,6.07
2018-11-13T22:06:23.646Z,5.60
2018-11-13T22:08:57.994Z,6.00
2018-11-13T22:11:32.346Z,6.27
2018-11-13T22:14:06.750Z,6.70
2018-11-13T22:16:41.160Z,5.73
2018-11-13T22:19:15.273Z,6.67
2018-11-13T22:21:49.530Z,6.40
2018-11-13T22:24:23.874Z,6.27
2018-11-13T22:26:58.198Z,6.80
2018-11-13T22:29:32.522Z,7.17
2018-11-13T22:32:06.822Z,6.50
2018-11-13T22:34:41.138Z,6.67
2018-11-13T22:37:15.569Z,7.53
2018-11-13T22:39:49.905Z,6.37
2018-11-13T22:42:24.197Z,6.17
2018-11-13T22:44:58.593Z,6.60
2018-11-13T22:47:33.038Z,6.20
2018-11-13T22:50:15.422Z,7.20
2018-11-13T22:52:49.990Z,8.30
2018-11-13T22:55:24.121Z,7.57
2018-11-13T22:57:59.593Z,7.77
2018-11-13T23:00:48.493Z,8.10
2018-11-13T23:03:22.222Z,7.20
2018-11-13T23:05:56.567Z,7.83
2018-11-13T23:08:30.713Z,7.67
2018-11-13T23:11:10.786Z,7.30
2018-11-13T23:13:45.302Z,7.10
2018-11-13T23:16:19.597Z,8.70
2018-11-13T23:18:53.958Z,8.53
2018-11-13T23:21:28.310Z,7.43
2018-11-13T23:24:02.726Z,7.57
2018-11-13T23:26:37.093Z,8.20
2018-11-13T23:29:11.378Z,7.97
2018-11-13T23:31:46.313Z,7.70
2018-11-13T23:34:20.054Z,7.53
2018-11-13T23:36:54.242Z,7.37
2018-11-13T23:39:28.546Z,6.97
2018-11-13T23:42:02.967Z,7.70
2018-11-13T23:44:37.314Z,8.43
2018-11-13T23:47:11.599Z,7.37
2018-11-13T23:49:45.816Z,8.07
2018-11-13T23:52:20.195Z,8.93
2018-11-13T23:54:54.507Z,8.20
2018-11-13T23:57:28.790Z,8.30
